sensor_id;sensor_type;location;lat;lon;timestamp;noise_LAeq;noise_LA_min;noise_LA_max;noise_LA01;noise_LA95
80864;Laerm;70936;51.680;5.974;2023-10-19T00:03:03;29.33;28.28;35.78;;
80864;Laerm;70936;51.680;5.974;2023-10-19T00:07:03;29.14;28.42;30.42;;
80864;Laerm;70936;51.680;5.974;2023-10-19T00:11:03;29.12;28.32;32.01;;
80864;Laerm;70936;51.680;5.974;2023-10-19T00:15:03;29.09;28.32;32.16;;
80864;Laerm;70936;51.680;5.974;2023-10-19T00:19:03;29.54;28.42;39.89;;
80864;Laerm;70936;51.680;5.974;2023-10-19T00:23:03;29.11;28.41;30.22;;
80864;Laerm;70936;51.680;5.974;2023-10-19T00:27:03;29.16;28.39;30.56;;
80864;Laerm;70936;51.680;5.974;2023-10-19T00:31:03;29.29;28.39;33.11;;
80864;Laerm;70936;51.680;5.974;2023-10-19T00:35:03;29.11;28.43;31.68;;
80864;Laerm;70936;51.680;5.974;2023-10-19T00:39:03;29.09;28.35;29.82;;
80864;Laerm;70936;51.680;5.974;2023-10-19T00:43:03;29.1;28.29;31.02;;
80864;Laerm;70936;51.680;5.974;2023-10-19T00:47:03;29.11;28.25;29.88;;
80864;Laerm;70936;51.680;5.974;2023-10-19T00:51:03;29.12;28.26;29.9;;
80864;Laerm;70936;51.680;5.974;2023-10-19T00:55:03;29.13;28.43;32.59;;
80864;Laerm;70936;51.680;5.974;2023-10-19T00:59:03;29.1;28.33;31.12;;
80864;Laerm;70936;51.680;5.974;2023-10-19T01:03:03;29.1;28.32;30.07;;
80864;Laerm;70936;51.680;5.974;2023-10-19T01:07:03;29.11;28.38;30.86;;
80864;Laerm;70936;51.680;5.974;2023-10-19T01:11:03;29.43;28.23;37.53;;
80864;Laerm;70936;51.680;5.974;2023-10-19T01:15:04;29.29;28.44;32.82;;
80864;Laerm;70936;51.680;5.974;2023-10-19T01:19:03;29.1;28.36;29.9;;
80864;Laerm;70936;51.680;5.974;2023-10-19T01:23:03;29.2;28.44;30.74;;
80864;Laerm;70936;51.680;5.974;2023-10-19T01:27:03;29.11;28.42;32.27;;
80864;Laerm;70936;51.680;5.974;2023-10-19T01:31:03;29.12;28.22;31.62;;
80864;Laerm;70936;51.680;5.974;2023-10-19T01:35:03;29.12;28.39;29.79;;
80864;Laerm;70936;51.680;5.974;2023-10-19T01:39:03;29.21;28.49;35.04;;
80864;Laerm;70936;51.680;5.974;2023-10-19T01:43:03;29.18;28.44;34.67;;
80864;Laerm;70936;51.680;5.974;2023-10-19T01:47:03;29.09;28.4;30.82;;
80864;Laerm;70936;51.680;5.974;2023-10-19T01:51:03;29.11;28.32;29.78;;
80864;Laerm;70936;51.680;5.974;2023-10-19T01:55:03;29.21;28.46;34.24;;
80864;Laerm;70936;51.680;5.974;2023-10-19T01:59:03;29.18;28.35;32.37;;
80864;Laerm;70936;51.680;5.974;2023-10-19T02:03:06;29.19;28.4;32.75;;
80864;Laerm;70936;51.680;5.974;2023-10-19T02:07:03;29.1;28.43;29.85;;
80864;Laerm;70936;51.680;5.974;2023-10-19T02:11:03;29.11;28.43;31.39;;
80864;Laerm;70936;51.680;5.974;2023-10-19T02:15:03;29.32;28.21;34.21;;
80864;Laerm;70936;51.680;5.974;2023-10-19T02:19:03;29.54;28.5;38.46;;
80864;Laerm;70936;51.680;5.974;2023-10-19T02:23:03;29.21;28.47;32.94;;
80864;Laerm;70936;51.680;5.974;2023-10-19T02:27:03;29.21;28.45;34.74;;
80864;Laerm;70936;51.680;5.974;2023-10-19T02:31:03;29.12;28.31;29.89;;
80864;Laerm;70936;51.680;5.974;2023-10-19T02:35:03;29.49;28.49;36.59;;
80864;Laerm;70936;51.680;5.974;2023-10-19T02:39:03;29.36;28.48;36.39;;
80864;Laerm;70936;51.680;5.974;2023-10-19T02:43:03;29.27;28.46;34.52;;
80864;Laerm;70936;51.680;5.974;2023-10-19T02:47:03;29.16;28.36;32.81;;
80864;Laerm;70936;51.680;5.974;2023-10-19T02:51:03;29.16;28.42;29.91;;
80864;Laerm;70936;51.680;5.974;2023-10-19T02:55:03;29.29;28.29;34.39;;
80864;Laerm;70936;51.680;5.974;2023-10-19T02:59:03;29.21;28.45;32.92;;
80864;Laerm;70936;51.680;5.974;2023-10-19T03:03:03;29.31;28.46;35.59;;
80864;Laerm;70936;51.680;5.974;2023-10-19T03:07:03;29.22;28.44;30.14;;
80864;Laerm;70936;51.680;5.974;2023-10-19T03:11:03;29.37;28.54;33.83;;
80864;Laerm;70936;51.680;5.974;2023-10-19T03:15:03;29.73;28.36;40.25;;
80864;Laerm;70936;51.680;5.974;2023-10-19T03:19:03;29.69;28.49;37.75;;
80864;Laerm;70936;51.680;5.974;2023-10-19T03:23:03;29.41;28.47;33.93;;
80864;Laerm;70936;51.680;5.974;2023-10-19T03:27:03;29.76;28.36;40.38;;
80864;Laerm;70936;51.680;5.974;2023-10-19T03:31:03;29.61;28.44;36.72;;
80864;Laerm;70936;51.680;5.974;2023-10-19T03:35:03;29.62;28.52;34.62;;
80864;Laerm;70936;51.680;5.974;2023-10-19T03:39:03;29.45;28.55;32.68;;
80864;Laerm;70936;51.680;5.974;2023-10-19T03:43:03;29.7;28.4;37.02;;
80864;Laerm;70936;51.680;5.974;2023-10-19T03:47:03;29.4;28.41;34.79;;
80864;Laerm;70936;51.680;5.974;2023-10-19T03:51:03;29.9;28.43;36.99;;
80864;Laerm;70936;51.680;5.974;2023-10-19T03:55:03;29.8;28.55;36.09;;
80864;Laerm;70936;51.680;5.974;2023-10-19T03:59:03;29.79;28.49;39.7;;
80864;Laerm;70936;51.680;5.974;2023-10-19T04:03:03;30.66;28.57;43.57;;
80864;Laerm;70936;51.680;5.974;2023-10-19T04:07:03;29.71;28.57;36.92;;
80864;Laerm;70936;51.680;5.974;2023-10-19T04:11:03;30.18;28.51;39.33;;
80864;Laerm;70936;51.680;5.974;2023-10-19T04:15:03;31.78;28.75;45.52;;
80864;Laerm;70936;51.680;5.974;2023-10-19T04:19:03;30.94;28.53;44.86;;
80864;Laerm;70936;51.680;5.974;2023-10-19T04:23:03;31.09;28.61;44.03;;
80864;Laerm;70936;51.680;5.974;2023-10-19T04:27:03;29.67;28.42;35.66;;
80864;Laerm;70936;51.680;5.974;2023-10-19T04:31:03;29.89;28.58;38.37;;
80864;Laerm;70936;51.680;5.974;2023-10-19T04:35:03;32.7;28.52;56.02;;
80864;Laerm;70936;51.680;5.974;2023-10-19T04:39:03;31.5;28.7;54.67;;
80864;Laerm;70936;51.680;5.974;2023-10-19T04:43:03;30.67;28.64;48.36;;
80864;Laerm;70936;51.680;5.974;2023-10-19T04:47:03;30.84;28.65;40.78;;
80864;Laerm;70936;51.680;5.974;2023-10-19T04:51:03;31.65;28.69;45.35;;
80864;Laerm;70936;51.680;5.974;2023-10-19T04:55:03;32.04;28.71;49.65;;
80864;Laerm;70936;51.680;5.974;2023-10-19T04:59:03;43.18;28.76;72.57;;
80864;Laerm;70936;51.680;5.974;2023-10-19T05:03:03;37.11;29.04;58.36;;
80864;Laerm;70936;51.680;5.974;2023-10-19T05:07:03;39.58;28.92;66.78;;
80864;Laerm;70936;51.680;5.974;2023-10-19T05:11:03;41.64;28.67;67.36;;
80864;Laerm;70936;51.680;5.974;2023-10-19T05:15:03;32.34;28.73;49.06;;
80864;Laerm;70936;51.680;5.974;2023-10-19T05:19:03;30.6;28.74;41.53;;
80864;Laerm;70936;51.680;5.974;2023-10-19T05:23:03;30.72;28.79;46.29;;
80864;Laerm;70936;51.680;5.974;2023-10-19T05:27:03;31.06;28.73;45.57;;
80864;Laerm;70936;51.680;5.974;2023-10-19T05:31:03;29.85;28.6;37.32;;
80864;Laerm;70936;51.680;5.974;2023-10-19T05:35:03;30.2;28.61;38.44;;
80864;Laerm;70936;51.680;5.974;2023-10-19T05:39:03;31.19;28.68;41.35;;
80864;Laerm;70936;51.680;5.974;2023-10-19T05:43:03;30.92;28.76;42.83;;
80864;Laerm;70936;51.680;5.974;2023-10-19T05:47:03;31.4;28.64;46.48;;
80864;Laerm;70936;51.680;5.974;2023-10-19T05:51:03;31.22;28.78;43.67;;
80864;Laerm;70936;51.680;5.974;2023-10-19T05:55:03;30.82;28.73;41.13;;
80864;Laerm;70936;51.680;5.974;2023-10-19T05:59:03;32.01;28.83;42.6;;
80864;Laerm;70936;51.680;5.974;2023-10-19T06:03:03;30.26;28.78;36.13;;
80864;Laerm;70936;51.680;5.974;2023-10-19T06:07:03;31.75;28.74;47.87;;
80864;Laerm;70936;51.680;5.974;2023-10-19T06:11:03;31.86;28.63;44.44;;
80864;Laerm;70936;51.680;5.974;2023-10-19T06:15:03;30.24;28.67;42;;
80864;Laerm;70936;51.680;5.974;2023-10-19T06:19:03;32.26;28.65;47.74;;
80864;Laerm;70936;51.680;5.974;2023-10-19T06:23:03;31.68;28.88;42.33;;
80864;Laerm;70936;51.680;5.974;2023-10-19T06:27:03;31.56;28.81;41.93;;
80864;Laerm;70936;51.680;5.974;2023-10-19T06:31:03;32.33;29.03;47.26;;
80864;Laerm;70936;51.680;5.974;2023-10-19T06:35:03;31.11;28.99;41.94;;
80864;Laerm;70936;51.680;5.974;2023-10-19T06:39:03;32.38;28.86;45.93;;
80864;Laerm;70936;51.680;5.974;2023-10-19T06:43:03;30.66;28.66;41.52;;
80864;Laerm;70936;51.680;5.974;2023-10-19T06:47:03;44.73;28.68;68.44;;
80864;Laerm;70936;51.680;5.974;2023-10-19T06:51:03;41.2;29.27;63.88;;
80864;Laerm;70936;51.680;5.974;2023-10-19T06:55:03;43.36;28.9;60.21;;
80864;Laerm;70936;51.680;5.974;2023-10-19T06:59:03;43.89;28.85;69.32;;
80864;Laerm;70936;51.680;5.974;2023-10-19T07:03:03;47.05;29.07;70.27;;
80864;Laerm;70936;51.680;5.974;2023-10-19T07:07:03;46.34;28.94;72.94;;
80864;Laerm;70936;51.680;5.974;2023-10-19T07:11:03;45.72;28.88;65.74;;
80864;Laerm;70936;51.680;5.974;2023-10-19T07:15:03;37.51;28.82;59.46;;
80864;Laerm;70936;51.680;5.974;2023-10-19T07:19:03;47.88;29.16;74.76;;
80864;Laerm;70936;51.680;5.974;2023-10-19T07:23:03;44.97;29.05;66.87;;
80864;Laerm;70936;51.680;5.974;2023-10-19T07:27:03;43.92;28.8;67.17;;
80864;Laerm;70936;51.680;5.974;2023-10-19T07:31:03;34.93;29.06;56.99;;
80864;Laerm;70936;51.680;5.974;2023-10-19T07:35:03;44.93;28.9;67.18;;
80864;Laerm;70936;51.680;5.974;2023-10-19T07:39:03;35.62;28.67;60.37;;
80864;Laerm;70936;51.680;5.974;2023-10-19T07:43:03;36.2;28.73;57.08;;
80864;Laerm;70936;51.680;5.974;2023-10-19T07:47:03;39.13;28.76;64.93;;
80864;Laerm;70936;51.680;5.974;2023-10-19T07:51:03;34.16;28.8;55.83;;
80864;Laerm;70936;51.680;5.974;2023-10-19T07:55:03;45.36;28.79;64.7;;
80864;Laerm;70936;51.680;5.974;2023-10-19T07:59:03;47.91;29.05;76.67;;
80864;Laerm;70936;51.680;5.974;2023-10-19T08:03:03;46.5;28.94;67.17;;
80864;Laerm;70936;51.680;5.974;2023-10-19T08:07:03;44.01;28.79;70.68;;
80864;Laerm;70936;51.680;5.974;2023-10-19T08:11:03;43.83;28.83;63.34;;
80864;Laerm;70936;51.680;5.974;2023-10-19T08:15:03;43.72;28.62;68.54;;
80864;Laerm;70936;51.680;5.974;2023-10-19T08:19:03;32.03;28.69;50.75;;
80864;Laerm;70936;51.680;5.974;2023-10-19T08:23:03;31.75;28.7;45.48;;
80864;Laerm;70936;51.680;5.974;2023-10-19T08:27:03;31.92;28.64;45.61;;
80864;Laerm;70936;51.680;5.974;2023-10-19T08:31:03;30.29;28.52;38.6;;
80864;Laerm;70936;51.680;5.974;2023-10-19T08:35:03;31.28;28.43;42.4;;
80864;Laerm;70936;51.680;5.974;2023-10-19T08:39:03;32.54;28.84;43.48;;
80864;Laerm;70936;51.680;5.974;2023-10-19T08:43:03;31.52;28.8;43.33;;
80864;Laerm;70936;51.680;5.974;2023-10-19T08:47:03;30.43;28.71;39.26;;
80864;Laerm;70936;51.680;5.974;2023-10-19T08:51:03;30.94;28.71;46.53;;
80864;Laerm;70936;51.680;5.974;2023-10-19T08:55:03;29.96;28.67;37.72;;
80864;Laerm;70936;51.680;5.974;2023-10-19T08:59:03;30.61;28.61;45.39;;
80864;Laerm;70936;51.680;5.974;2023-10-19T09:03:03;31.42;28.65;41.26;;
80864;Laerm;70936;51.680;5.974;2023-10-19T09:07:03;30.27;28.72;46.1;;
80864;Laerm;70936;51.680;5.974;2023-10-19T09:11:05;30.03;28.55;38.14;;
80864;Laerm;70936;51.680;5.974;2023-10-19T09:15:03;30.61;28.64;41.64;;
80864;Laerm;70936;51.680;5.974;2023-10-19T09:19:03;32.6;28.71;48.73;;
80864;Laerm;70936;51.680;5.974;2023-10-19T09:23:03;30.73;28.52;43.7;;
80864;Laerm;70936;51.680;5.974;2023-10-19T09:27:03;31.6;28.71;44.25;;
80864;Laerm;70936;51.680;5.974;2023-10-19T09:31:03;32.47;28.72;46.72;;
80864;Laerm;70936;51.680;5.974;2023-10-19T09:35:03;32.92;28.7;48.67;;
80864;Laerm;70936;51.680;5.974;2023-10-19T09:39:03;31.42;28.64;47;;
80864;Laerm;70936;51.680;5.974;2023-10-19T09:43:04;30.83;28.64;44.52;;
80864;Laerm;70936;51.680;5.974;2023-10-19T09:47:03;30.86;28.55;42.47;;
80864;Laerm;70936;51.680;5.974;2023-10-19T09:51:03;31.44;28.68;44.72;;
80864;Laerm;70936;51.680;5.974;2023-10-19T09:55:03;30.3;28.48;40.05;;
80864;Laerm;70936;51.680;5.974;2023-10-19T09:59:05;39.88;28.72;63.92;;
80864;Laerm;70936;51.680;5.974;2023-10-19T10:03:03;32.09;28.69;45.09;;
80864;Laerm;70936;51.680;5.974;2023-10-19T10:07:04;39.46;28.69;63.66;;
80864;Laerm;70936;51.680;5.974;2023-10-19T10:11:34;30.88;28.63;41.62;;
80864;Laerm;70936;51.680;5.974;2023-10-19T10:15:03;31.59;28.65;42.82;;
80864;Laerm;70936;51.680;5.974;2023-10-19T10:19:03;30.65;28.81;39.55;;
80864;Laerm;70936;51.680;5.974;2023-10-19T10:23:18;30.51;28.54;41.29;;
80864;Laerm;70936;51.680;5.974;2023-10-19T10:27:03;31.5;28.74;44.39;;
80864;Laerm;70936;51.680;5.974;2023-10-19T10:31:11;31.34;28.62;42.71;;
80864;Laerm;70936;51.680;5.974;2023-10-19T10:35:03;32.86;28.69;51.37;;
80864;Laerm;70936;51.680;5.974;2023-10-19T10:39:03;30.7;28.34;41.21;;
80864;Laerm;70936;51.680;5.974;2023-10-19T10:43:04;30.18;28.51;41.78;;
80864;Laerm;70936;51.680;5.974;2023-10-19T10:47:03;31.6;28.7;46.88;;
80864;Laerm;70936;51.680;5.974;2023-10-19T10:51:03;33.26;28.64;50.36;;
80864;Laerm;70936;51.680;5.974;2023-10-19T10:55:06;30.77;28.65;42.06;;
80864;Laerm;70936;51.680;5.974;2023-10-19T10:59:11;29.76;28.68;33.86;;
80864;Laerm;70936;51.680;5.974;2023-10-19T11:03:04;44.12;28.6;69.42;;
80864;Laerm;70936;51.680;5.974;2023-10-19T11:07:03;35.99;28.59;61.41;;
80864;Laerm;70936;51.680;5.974;2023-10-19T11:11:03;44.62;28.61;71.22;;
80864;Laerm;70936;51.680;5.974;2023-10-19T11:15:03;43.81;28.55;73.37;;
80864;Laerm;70936;51.680;5.974;2023-10-19T11:19:03;32.26;28.57;52.77;;
80864;Laerm;70936;51.680;5.974;2023-10-19T11:23:03;32.08;28.63;46.48;;
80864;Laerm;70936;51.680;5.974;2023-10-19T11:31:18;31.27;28.46;39.91;;
80864;Laerm;70936;51.680;5.974;2023-10-19T11:35:03;32.27;28.69;46.81;;
80864;Laerm;70936;51.680;5.974;2023-10-19T11:39:03;31.88;28.62;42.48;;
80864;Laerm;70936;51.680;5.974;2023-10-19T11:43:03;32.76;28.57;46.11;;
80864;Laerm;70936;51.680;5.974;2023-10-19T11:47:03;30.76;28.55;40.77;;
80864;Laerm;70936;51.680;5.974;2023-10-19T11:55:03;31.3;28.59;43.72;;
80864;Laerm;70936;51.680;5.974;2023-10-19T11:59:03;30.19;28.26;39.8;;
80864;Laerm;70936;51.680;5.974;2023-10-19T12:03:03;32.58;28.44;48.61;;
80864;Laerm;70936;51.680;5.974;2023-10-19T12:07:03;31.15;28.72;39.97;;
80864;Laerm;70936;51.680;5.974;2023-10-19T12:11:03;30.86;28.44;41.77;;
80864;Laerm;70936;51.680;5.974;2023-10-19T12:15:03;30.51;28.69;38.83;;
80864;Laerm;70936;51.680;5.974;2023-10-19T12:19:03;30.88;28.66;41.33;;
80864;Laerm;70936;51.680;5.974;2023-10-19T12:23:03;31.49;28.62;43.84;;
80864;Laerm;70936;51.680;5.974;2023-10-19T12:27:03;30.76;28.53;42.72;;
80864;Laerm;70936;51.680;5.974;2023-10-19T12:31:03;30.88;28.55;43.48;;
80864;Laerm;70936;51.680;5.974;2023-10-19T12:35:03;31.62;28.51;40.39;;
80864;Laerm;70936;51.680;5.974;2023-10-19T12:39:03;31.6;28.67;41.2;;
80864;Laerm;70936;51.680;5.974;2023-10-19T12:43:03;31.33;28.67;44.69;;
80864;Laerm;70936;51.680;5.974;2023-10-19T12:47:03;31.27;28.45;42.51;;
80864;Laerm;70936;51.680;5.974;2023-10-19T12:51:03;30.02;28.64;37.03;;
80864;Laerm;70936;51.680;5.974;2023-10-19T12:55:03;30.35;28.68;40.44;;
80864;Laerm;70936;51.680;5.974;2023-10-19T12:59:03;31.9;28.66;44.49;;
80864;Laerm;70936;51.680;5.974;2023-10-19T13:03:03;30.68;28.64;40.35;;
80864;Laerm;70936;51.680;5.974;2023-10-19T13:07:03;33.11;28.73;50.08;;
80864;Laerm;70936;51.680;5.974;2023-10-19T13:11:03;31.65;28.63;45.56;;
80864;Laerm;70936;51.680;5.974;2023-10-19T13:15:03;31.42;28.82;41.52;;
80864;Laerm;70936;51.680;5.974;2023-10-19T13:19:03;32.79;28.76;45.93;;
80864;Laerm;70936;51.680;5.974;2023-10-19T13:23:03;33.15;28.59;48.75;;
80864;Laerm;70936;51.680;5.974;2023-10-19T13:27:03;31.15;28.75;44.98;;
80864;Laerm;70936;51.680;5.974;2023-10-19T13:31:03;31.2;28.71;43.27;;
80864;Laerm;70936;51.680;5.974;2023-10-19T13:35:03;32.05;28.65;47.68;;
80864;Laerm;70936;51.680;5.974;2023-10-19T13:39:03;32.32;28.69;44.41;;
80864;Laerm;70936;51.680;5.974;2023-10-19T13:43:03;30.9;28.63;44.67;;
80864;Laerm;70936;51.680;5.974;2023-10-19T13:47:03;32.37;28.77;49.31;;
80864;Laerm;70936;51.680;5.974;2023-10-19T13:51:03;49.27;29.32;70.65;;
80864;Laerm;70936;51.680;5.974;2023-10-19T13:55:03;46.04;28.75;73.17;;
80864;Laerm;70936;51.680;5.974;2023-10-19T13:59:03;30.98;28.77;50.59;;
80864;Laerm;70936;51.680;5.974;2023-10-19T14:03:03;32.39;28.89;45.42;;
80864;Laerm;70936;51.680;5.974;2023-10-19T14:07:03;44.42;29.54;66.84;;
80864;Laerm;70936;51.680;5.974;2023-10-19T14:11:03;41.86;28.79;66.56;;
80864;Laerm;70936;51.680;5.974;2023-10-19T14:15:03;31;28.86;39.67;;
80864;Laerm;70936;51.680;5.974;2023-10-19T14:19:03;36.32;28.98;64.63;;
80864;Laerm;70936;51.680;5.974;2023-10-19T14:23:03;31.5;28.87;43.14;;
80864;Laerm;70936;51.680;5.974;2023-10-19T14:27:03;39.37;28.86;66.01;;
80864;Laerm;70936;51.680;5.974;2023-10-19T14:31:03;46.24;29.26;70.99;;
80864;Laerm;70936;51.680;5.974;2023-10-19T14:35:03;51.29;31.43;76.81;;
80864;Laerm;70936;51.680;5.974;2023-10-19T14:39:03;45.86;31.29;70.37;;
80864;Laerm;70936;51.680;5.974;2023-10-19T14:43:03;45.75;31.17;72.03;;
80864;Laerm;70936;51.680;5.974;2023-10-19T14:47:03;39.92;31.15;65.85;;
80864;Laerm;70936;51.680;5.974;2023-10-19T14:51:03;35.01;31.32;48.31;;
80864;Laerm;70936;51.680;5.974;2023-10-19T14:55:03;37.4;31.36;57.9;;
80864;Laerm;70936;51.680;5.974;2023-10-19T14:59:03;36.11;31.08;60.03;;
80864;Laerm;70936;51.680;5.974;2023-10-19T15:03:03;47;30.82;67.46;;
80864;Laerm;70936;51.680;5.974;2023-10-19T15:07:03;51.42;30.8;74.17;;
80864;Laerm;70936;51.680;5.974;2023-10-19T15:11:03;48.01;31.32;64.31;;
80864;Laerm;70936;51.680;5.974;2023-10-19T15:15:03;51.14;31.64;70.33;;
80864;Laerm;70936;51.680;5.974;2023-10-19T15:19:03;52.9;30.81;75.77;;
80864;Laerm;70936;51.680;5.974;2023-10-19T15:23:03;48.93;30.73;68.46;;
80864;Laerm;70936;51.680;5.974;2023-10-19T15:27:03;52.63;30.8;72.52;;
80864;Laerm;70936;51.680;5.974;2023-10-19T15:31:05;52.95;31.22;76.73;;
80864;Laerm;70936;51.680;5.974;2023-10-19T15:35:03;54.7;31.19;78.19;;
80864;Laerm;70936;51.680;5.974;2023-10-19T15:39:03;53.05;28.86;72.93;;
80864;Laerm;70936;51.680;5.974;2023-10-19T15:43:03;45.92;28.87;74.6;;
80864;Laerm;70936;51.680;5.974;2023-10-19T15:47:03;41.45;28.9;65.5;;
80864;Laerm;70936;51.680;5.974;2023-10-19T15:51:04;46.06;28.84;69.33;;
80864;Laerm;70936;51.680;5.974;2023-10-19T15:55:03;37.49;28.7;58.29;;
80864;Laerm;70936;51.680;5.974;2023-10-19T15:59:03;39.03;28.96;61;;
80864;Laerm;70936;51.680;5.974;2023-10-19T16:03:03;45.98;30.65;71.05;;
80864;Laerm;70936;51.680;5.974;2023-10-19T16:07:03;41.49;30.56;65.57;;
80864;Laerm;70936;51.680;5.974;2023-10-19T16:11:03;34.05;30.8;47.66;;
80864;Laerm;70936;51.680;5.974;2023-10-19T16:15:03;33.9;30.96;49.69;;
80864;Laerm;70936;51.680;5.974;2023-10-19T16:19:03;37.06;28.77;56.6;;
80864;Laerm;70936;51.680;5.974;2023-10-19T16:23:03;36.61;28.59;60.26;;
80864;Laerm;70936;51.680;5.974;2023-10-19T16:27:03;39.9;28.64;59.03;;
80864;Laerm;70936;51.680;5.974;2023-10-19T16:31:03;37.21;28.93;55.76;;
80864;Laerm;70936;51.680;5.974;2023-10-19T16:35:03;47.45;29.6;65.34;;
80864;Laerm;70936;51.680;5.974;2023-10-19T16:39:03;45.43;28.69;67.05;;
80864;Laerm;70936;51.680;5.974;2023-10-19T16:43:03;41.46;29.42;65.34;;
80864;Laerm;70936;51.680;5.974;2023-10-19T16:47:03;37.05;29.59;54.94;;
80864;Laerm;70936;51.680;5.974;2023-10-19T16:51:03;36.93;28.69;55.34;;
80864;Laerm;70936;51.680;5.974;2023-10-19T16:55:03;35.73;28.98;56.55;;
80864;Laerm;70936;51.680;5.974;2023-10-19T16:59:03;36.36;28.44;50.37;;
80864;Laerm;70936;51.680;5.974;2023-10-19T17:03:03;36.72;28.57;53.43;;
80864;Laerm;70936;51.680;5.974;2023-10-19T17:07:03;34.91;28.52;51.74;;
80864;Laerm;70936;51.680;5.974;2023-10-19T17:11:03;32.09;28.69;48.71;;
80864;Laerm;70936;51.680;5.974;2023-10-19T17:15:03;37.09;28.92;65.64;;
80864;Laerm;70936;51.680;5.974;2023-10-19T17:19:03;34.74;28.59;56.18;;
80864;Laerm;70936;51.680;5.974;2023-10-19T17:23:03;35.24;28.85;56.56;;
80864;Laerm;70936;51.680;5.974;2023-10-19T17:27:03;37.15;28.5;62.41;;
80864;Laerm;70936;51.680;5.974;2023-10-19T17:31:03;34.46;28.64;60.43;;
80864;Laerm;70936;51.680;5.974;2023-10-19T17:35:03;32.94;28.57;50.87;;
80864;Laerm;70936;51.680;5.974;2023-10-19T17:39:03;32.68;28.38;50.7;;
80864;Laerm;70936;51.680;5.974;2023-10-19T17:43:03;44.11;28.54;64.87;;
80864;Laerm;70936;51.680;5.974;2023-10-19T17:47:03;36.57;28.47;64.49;;
80864;Laerm;70936;51.680;5.974;2023-10-19T17:51:10;32.22;28.55;51.25;;
80864;Laerm;70936;51.680;5.974;2023-10-19T17:55:03;34.04;28.53;53.04;;
80864;Laerm;70936;51.680;5.974;2023-10-19T17:59:03;40.42;28.67;65.24;;
80864;Laerm;70936;51.680;5.974;2023-10-19T18:03:03;39.84;28.53;67.54;;
80864;Laerm;70936;51.680;5.974;2023-10-19T18:07:03;44.82;28.58;72.01;;
80864;Laerm;70936;51.680;5.974;2023-10-19T18:11:03;32.84;28.49;54.93;;
80864;Laerm;70936;51.680;5.974;2023-10-19T18:15:03;36.1;28.58;60.13;;
80864;Laerm;70936;51.680;5.974;2023-10-19T18:19:03;29.84;28.61;39.51;;
80864;Laerm;70936;51.680;5.974;2023-10-19T18:23:03;29.38;28.43;34.99;;
80864;Laerm;70936;51.680;5.974;2023-10-19T18:27:03;30.74;28.52;42.48;;
80864;Laerm;70936;51.680;5.974;2023-10-19T18:31:03;44.85;28.43;69.94;;
80864;Laerm;70936;51.680;5.974;2023-10-19T18:35:03;31.01;28.44;44.87;;
80864;Laerm;70936;51.680;5.974;2023-10-19T18:39:03;29.54;28.47;35.48;;
80864;Laerm;70936;51.680;5.974;2023-10-19T18:43:03;30.64;28.51;40.77;;
80864;Laerm;70936;51.680;5.974;2023-10-19T18:47:03;30.17;28.5;40.91;;
80864;Laerm;70936;51.680;5.974;2023-10-19T18:51:03;30.64;28.42;46.49;;
80864;Laerm;70936;51.680;5.974;2023-10-19T18:55:03;29.8;28.53;46.25;;
80864;Laerm;70936;51.680;5.974;2023-10-19T18:59:03;46.35;28.63;69.85;;
80864;Laerm;70936;51.680;5.974;2023-10-19T19:03:03;29.45;28.37;35.28;;
80864;Laerm;70936;51.680;5.974;2023-10-19T19:07:03;29.58;28.52;35.55;;
80864;Laerm;70936;51.680;5.974;2023-10-19T19:11:10;29.47;28.49;35.4;;
80864;Laerm;70936;51.680;5.974;2023-10-19T19:15:03;29.94;28.57;38.66;;
80864;Laerm;70936;51.680;5.974;2023-10-19T19:19:03;41.1;28.54;60.7;;
80864;Laerm;70936;51.680;5.974;2023-10-19T19:23:03;34.42;28.51;60.88;;
80864;Laerm;70936;51.680;5.974;2023-10-19T19:27:03;29.8;28.5;42.65;;
80864;Laerm;70936;51.680;5.974;2023-10-19T19:31:03;29.5;28.39;37.19;;
80864;Laerm;70936;51.680;5.974;2023-10-19T19:35:03;29.77;28.57;44.96;;
80864;Laerm;70936;51.680;5.974;2023-10-19T19:39:03;29.38;28.45;35.29;;
80864;Laerm;70936;51.680;5.974;2023-10-19T19:43:03;29.95;28.41;41.19;;
80864;Laerm;70936;51.680;5.974;2023-10-19T19:47:03;29.47;28.38;36.56;;
80864;Laerm;70936;51.680;5.974;2023-10-19T19:51:03;29.33;28.36;33.37;;
80864;Laerm;70936;51.680;5.974;2023-10-19T19:55:03;29.79;28.36;40.8;;
80864;Laerm;70936;51.680;5.974;2023-10-19T19:59:03;29.47;28.52;34.45;;
80864;Laerm;70936;51.680;5.974;2023-10-19T20:03:03;29.69;28.51;35.48;;
80864;Laerm;70936;51.680;5.974;2023-10-19T20:07:03;30.06;28.58;37.94;;
80864;Laerm;70936;51.680;5.974;2023-10-19T20:11:03;29.57;28.42;36.45;;
80864;Laerm;70936;51.680;5.974;2023-10-19T20:15:03;29.86;28.52;39.01;;
80864;Laerm;70936;51.680;5.974;2023-10-19T20:19:03;29.8;28.36;43.71;;
80864;Laerm;70936;51.680;5.974;2023-10-19T20:23:03;29.25;28.39;37.99;;
80864;Laerm;70936;51.680;5.974;2023-10-19T20:27:03;29.48;28.45;35.98;;
80864;Laerm;70936;51.680;5.974;2023-10-19T20:31:03;29.42;28.31;36.41;;
80864;Laerm;70936;51.680;5.974;2023-10-19T20:35:03;29.79;28.41;38.6;;
80864;Laerm;70936;51.680;5.974;2023-10-19T20:39:03;29.6;28.36;37.03;;
80864;Laerm;70936;51.680;5.974;2023-10-19T20:43:03;29.42;28.13;34.4;;
80864;Laerm;70936;51.680;5.974;2023-10-19T20:47:03;29.42;28.42;35.45;;
80864;Laerm;70936;51.680;5.974;2023-10-19T20:51:03;29.37;28.32;35.99;;
80864;Laerm;70936;51.680;5.974;2023-10-19T20:55:03;29.26;28.4;36;;
80864;Laerm;70936;51.680;5.974;2023-10-19T20:59:03;29.2;28.31;33.15;;
80864;Laerm;70936;51.680;5.974;2023-10-19T21:03:03;29.31;28.39;36.5;;
80864;Laerm;70936;51.680;5.974;2023-10-19T21:07:03;29.57;28.42;39.51;;
80864;Laerm;70936;51.680;5.974;2023-10-19T21:11:03;29.26;28.46;35.21;;
80864;Laerm;70936;51.680;5.974;2023-10-19T21:15:03;29.47;28.27;41.01;;
80864;Laerm;70936;51.680;5.974;2023-10-19T21:19:03;29.09;28.39;29.93;;
80864;Laerm;70936;51.680;5.974;2023-10-19T21:23:03;29.15;28.36;30.2;;
80864;Laerm;70936;51.680;5.974;2023-10-19T21:27:03;29.12;28.35;30.52;;
80864;Laerm;70936;51.680;5.974;2023-10-19T21:35:03;29.41;28.2;35.99;;
80864;Laerm;70936;51.680;5.974;2023-10-19T21:39:03;29.18;28.32;33.06;;
80864;Laerm;70936;51.680;5.974;2023-10-19T21:43:03;29.13;28.24;30.3;;
80864;Laerm;70936;51.680;5.974;2023-10-19T21:47:03;29.68;28.52;40.68;;
80864;Laerm;70936;51.680;5.974;2023-10-19T21:51:03;29.12;28.43;31.46;;
80864;Laerm;70936;51.680;5.974;2023-10-19T21:55:03;29.21;28.26;35.37;;
80864;Laerm;70936;51.680;5.974;2023-10-19T21:59:03;29.09;28.36;29.79;;
80864;Laerm;70936;51.680;5.974;2023-10-19T22:03:03;29.47;28.41;39.83;;
80864;Laerm;70936;51.680;5.974;2023-10-19T22:07:03;29.24;28.39;34.92;;
80864;Laerm;70936;51.680;5.974;2023-10-19T22:11:03;29.15;28.33;31.35;;
80864;Laerm;70936;51.680;5.974;2023-10-19T22:15:03;29.13;28.43;32.33;;
80864;Laerm;70936;51.680;5.974;2023-10-19T22:19:03;29.23;28.39;36.22;;
80864;Laerm;70936;51.680;5.974;2023-10-19T22:23:03;29.2;28.39;33.15;;
80864;Laerm;70936;51.680;5.974;2023-10-19T22:27:03;29.21;28.32;35.62;;
80864;Laerm;70936;51.680;5.974;2023-10-19T22:31:03;29.23;28.34;36.1;;
80864;Laerm;70936;51.680;5.974;2023-10-19T22:35:03;29.08;28.21;30.81;;
80864;Laerm;70936;51.680;5.974;2023-10-19T22:39:03;29.18;28.35;33.31;;
80864;Laerm;70936;51.680;5.974;2023-10-19T22:43:03;29.07;28.33;29.81;;